Portland International Airport
KPDX : now visible

Airfield :











YOU CAN JOIN US ON...

 
LOGIN :

Register | Disclaimer

   EN    FR    IT 

 









Legend :    VFR   Marginal VFR   IFR   Intensive IFR   Very Intensive IFR
Visi :
Ceiling :
>= 8 km
>= 3000ft
5 to 8 km
1000 to 3000 ft
1500m to 5 km
500 to 1000 ft
800 to 1500m
200 to 500 ft
< 800m
< 200 ft
Symbols :   Thunderstorms  Fog  Heavy snow  Heavy precipitations  Wind > 20 kt







- Airport Elevation : 31 ft
- IATA code : PDX


KPDX - Portland International

CURRENT METAR :
  • 190853Z 34005KT 10SM CLR 17/12 A2992 RMK AO2 SLP131 T01670122 53012

EXPIRED METARs :
  • 190753Z VRB04KT 10SM CLR 17/12 A2991 RMK AO2 SLP127 T01720122 402500144
  • 190653Z 32003KT 10SM CLR 18/13 A2989 RMK AO2 SLP122 T01830128

TAF KPDX
Valid from the 19 at 09:00 until the 20 at 06:00 UTC


190911Z 1909/2006 34006KT P6SM FEW035
FM191300 VRB02KT P6SM SCT025 BKN035
FM191800 33004KT P6SM BKN050
No reported NOTAMs for that airfield.



MET'MAP, your aeronautical weather chart ! - Copyright ORBIFLY December 2007 - Disclaimer

ORBIFLY MET'MAP TEAM :

Programming & Development : Alexandra Zaïnal
Concept & Development : Baudouin d'Aumeries
Co-Development & Prog : Marc-Olivier Méhu
Technical & hardware support : Manuel Goepfert

Contact : metmap@orbifly.com




SOURCES & CREDITS :

   NOAA       Earth
Advisory